• Join FlightAware (Why Join?)
  • Login
  • US Flag 
12:44AM EDT


 

Airport Tracker/Info


-or-


 

Live Flight TrackerFlight Track Log ✈ EJM685 ✈ 28-Jul-2013 ✈ KEWR - LTBA / IST

Flight Track Log - Related Links

Times and Time Zones

All times are in EDT time to prevent confusion due to time zone crossing. See the EJM685 flight status page for this flight to view local times or setup timezone preferences in your user account.

Time Position Orientation Groundspeed Altitude Reporting Facility
EDT Latitude Longitude Course Direction KTS MPH feet Rate Location/Type
08:27AM 42.0400 -71.7861 54° Northeast 508 585 33,200  Level Boston Center
08:28AM 42.1225 -71.6311 54° Northeast 513 590 35,000 1,740 Climbing Boston Center
08:29AM 42.2192 -71.4672 51° Northeast 508 585 36,700 1,380 Climbing Boston Center
08:30AM 42.2989 -71.3144 55° Northeast 502 578 37,800 1,200 Climbing Boston Center
08:31AM 42.3806 -71.1583 55° Northeast 502 578 39,200 1,140 Climbing Boston Center
08:32AM 42.4600 -71.0075 54° Northeast 502 578 40,100 660 Climbing Boston Center
08:33AM 42.5394 -70.8536 55° Northeast 495 570 40,600 420 Climbing Boston Center
08:34AM 42.6206 -70.6964 55° Northeast 500 575 41,000 180 Climbing Boston Center
08:35AM 42.7033 -70.5386 54° Northeast 506 582 41,000  Level Boston Center
08:36AM 42.7717 -70.3922 58° Northeast 506 582 41,000  Level Boston Center
08:37AM 42.8644 -70.2219 53° Northeast 506 582 41,000  Level Boston Center
08:38AM 42.9444 -70.0631 55° Northeast 506 582 41,000  Level Boston Center
08:39AM 43.0225 -69.9039 56° Northeast 506 582 41,000  Level Boston Center
08:40AM 43.0942 -69.7586 56° Northeast 506 582 41,000  Level Boston Center
08:41AM 43.1736 -69.5986 56° Northeast 506 582 41,000  Level Boston Center
08:42AM 43.2550 -69.4381 55° Northeast 506 582 41,000  Level Boston Center
08:43AM 43.3319 -69.2772 57° Northeast 501 577 41,000  Level Boston Center
08:44AM 43.4128 -69.1128 56° Northeast 501 577 41,000  Level Boston Center
08:45AM 43.4914 -68.9539 56° Northeast 501 577 41,000  Level Boston Center
08:46AM 43.5333 -68.8500 61° Northeast 510 587 41,000  Level Moncton Center
08:47AM 43.6167 -68.6667 58° Northeast 510 587 41,000  Level Moncton Center
08:48AM 43.7000 -68.4833 58° Northeast 520 598 41,000  Level Moncton Center
08:49AM 43.8153 -68.2875 51° Northeast 506 582 41,000  Level Boston Center
08:50AM 43.8500 -68.1833 65° Northeast 510 587 41,000  Level Moncton Center
08:51AM 43.9697 -67.9594 53° Northeast 500 575 41,000  Level Boston Center
08:52AM 44.0467 -67.7947 57° Northeast 505 581 41,000  Level Boston Center
08:53AM 44.1233 -67.6325 57° Northeast 505 581 41,000  Level Boston Center
08:54AM 44.1919 -67.4819 58° Northeast 504 580 41,000 -60 Level Boston Center
08:55AM 44.2700 -67.3158 57° Northeast 504 580 40,900  Descending Boston Center
08:56AM 44.3167 -67.1833 64° Northeast 510 587 41,000  Climbing Moncton Center
08:57AM 44.3833 -67.0167 61° Northeast 510 587 41,000  Level Moncton Center
08:58AM 44.4667 -66.8333 57° Northeast 510 587 41,000  Level Moncton Center
08:59AM 44.5333 -66.6500 63° Northeast 510 587 41,000  Level Moncton Center
09:00AM 44.5833 -66.4833 67° East 510 587 41,000  Level Moncton Center
09:01AM 44.6500 -66.3000 63° Northeast 510 587 41,000  Level Moncton Center
09:02AM 44.7167 -66.1167 63° Northeast 510 587 41,000  Level Moncton Center
09:03AM 44.7833 -65.9500 61° Northeast 510 587 41,000  Level Moncton Center
09:04AM 44.8333 -65.7333 72° East 510 587 41,000  Level Moncton Center
09:05AM 44.9000 -65.5833 58° Northeast 510 587 41,000  Level Moncton Center
09:06AM 44.9667 -65.3833 65° Northeast 510 587 41,000  Level Moncton Center
09:07AM 45.0167 -65.2333 65° Northeast 510 587 41,000  Level Moncton Center
09:08AM 45.0833 -65.0167 66° East 500 575 41,000  Level Moncton Center
09:09AM 45.1333 -64.8500 67° East 500 575 41,000  Level Moncton Center
09:10AM 45.2000 -64.6500 65° Northeast 490 564 41,000  Level Moncton Center
09:11AM 45.2500 -64.5000 65° Northeast 500 575 41,000  Level Moncton Center
09:12AM 45.3167 -64.3000 65° Northeast 500 575 41,000  Level Moncton Center
09:13AM 45.3667 -64.1333 67° East 490 564 41,000  Level Moncton Center
09:14AM 45.4167 -63.9667 67° East 490 564 41,000  Level Moncton Center
09:15AM 45.4833 -63.7833 63° Northeast 490 564 41,000  Level Moncton Center
09:16AM 45.5333 -63.6167 67° East 490 564 41,000  Level Moncton Center
09:17AM 45.6000 -63.4167 64° Northeast 490 564 41,000  Level Moncton Center
09:18AM 45.6500 -63.2500 67° East 490 564 41,000  Level Moncton Center
09:19AM 45.7000 -63.0833 67° East 490 564 41,000  Level Moncton Center
09:20AM 45.7667 -62.8833 64° Northeast 490 564 41,000  Level Moncton Center
09:21AM 45.8167 -62.7167 67° East 490 564 41,000  Level Moncton Center
09:22AM 45.8833 -62.5167 64° Northeast 490 564 41,000  Level Moncton Center
09:23AM 45.9167 -62.3500 74° East 490 564 41,000  Level Moncton Center
09:24AM 45.9833 -62.1500 64° Northeast 490 564 41,000  Level Moncton Center
09:25AM 46.0333 -61.9833 67° East 490 564 41,000  Level Moncton Center
09:26AM 46.0833 -61.8167 67° East 490 564 41,000  Level Moncton Center
09:27AM 46.1500 -61.6167 64° Northeast 490 564 41,000  Level Moncton Center
09:28AM 46.1833 -61.4500 74° East 490 564 41,000  Level Moncton Center
09:29AM 46.2500 -61.2500 64° Northeast 500 575 41,000  Level Moncton Center
09:30AM 46.3000 -61.0833 66° East 500 575 41,000  Level Moncton Center
09:31AM 46.3500 -60.8833 70° East 490 564 41,000  Level Moncton Center
09:32AM 46.4167 -60.7333 57° Northeast 490 564 41,000  Level Gander Center
09:33AM 46.4667 -60.5333 70° East 490 564 41,000  Level Gander Center
09:34AM 46.5000 -60.3333 76° East 490 564 41,000  Level Gander Center
09:35AM 46.5500 -60.1667 66° East 490 564 41,000  Level Gander Center
09:36AM 46.6000 -60.0000 66° East 490 564 41,000  Level Gander Center
09:37AM 46.6500 -59.8000 70° East 490 564 41,000  Level Gander Center
09:38AM 46.7000 -59.6333 66° East 480 552 41,000  Level Gander Center
09:39AM 46.7667 -59.4333 64° Northeast 490 564 41,000  Level Gander Center
09:40AM 46.8167 -59.2500 68° East 490 564 41,000  Level Gander Center
09:41AM 46.8500 -59.0667 75° East 490 564 41,000  Level Gander Center
09:42AM 46.9000 -58.8833 68° East 490 564 41,000  Level Gander Center
09:43AM 46.9500 -58.6833 70° East 490 564 41,000  Level Gander Center
09:44AM 47.0000 -58.4833 70° East 490 564 41,000  Level Gander Center
09:45AM 47.0333 -58.3167 74° East 500 575 41,000  Level Gander Center
09:46AM 47.0833 -58.1167 70° East 490 564 41,000  Level Gander Center
09:47AM 47.1333 -57.9500 66° East 490 564 41,000  Level Gander Center
09:48AM 47.1833 -57.7500 70° East 490 564 41,000  Level Gander Center
09:49AM 47.2333 -57.5667 68° East 500 575 41,000  Level Gander Center
09:50AM 47.2833 -57.3667 70° East 500 575 41,000  Level Gander Center
09:51AM 47.3167 -57.1833 75° East 490 564 41,000  Level Gander Center
09:52AM 47.3833 -56.9833 64° Northeast 500 575 41,000  Level Gander Center
09:53AM 47.4167 -56.7833 76° East 500 575 41,000  Level Gander Center
09:54AM 47.4833 -56.6167 59° Northeast 500 575 41,000  Level Gander Center
09:55AM 47.5167 -56.4000 77° East 490 564 41,000  Level Gander Center
09:56AM 47.5833 -56.2333 59° Northeast 500 575 41,000  Level Gander Center
09:57AM 47.6167 -56.0500 75° East 490 564 41,000  Level Gander Center
09:58AM 47.6833 -55.8500 64° Northeast 490 564 41,000  Level Gander Center
09:59AM 47.7167 -55.6667 75° East 490 564 41,000  Level Gander Center
10:00AM 47.7667 -55.4667 70° East 500 575 41,000  Level Gander Center
10:01AM 47.8167 -55.2833 68° East 490 564 41,000  Level Gander Center
10:02AM 47.8667 -55.0833 69° East 490 564 41,000  Level Gander Center
10:03AM 47.9167 -54.9000 68° East 490 564 41,000  Level Gander Center
10:04AM 47.9500 -54.6833 77° East 490 564 41,000  Level Gander Center
10:05AM 48.0167 -54.5167 59° Northeast 490 564 41,000  Level Gander Center
10:06AM 48.0500 -54.3333 75° East 490 564 41,000  Level Gander Center
10:07AM 48.0833 -54.1167 77° East 490 564 41,000  Level Gander Center
10:08AM 48.1333 -53.9333 68° East 490 564 41,000  Level Gander Center
10:09AM 48.1833 -53.7333 69° East 490 564 41,000  Level Gander Center
10:10AM 48.2333 -53.5500 68° East 490 564 41,000  Level Gander Center
10:11AM 48.2667 -53.3667 75° East 490 564 41,000  Level Gander Center
10:12AM 48.3167 -53.1500 71° East 490 564 41,000  Level Gander Center
10:13AM 48.3667 -52.9667 68° East 500 575 41,000  Level Gander Center
10:14AM 48.4167 -52.7667 69° East 500 575 41,000  Level Gander Center
10:15AM 48.4500 -52.5500 77° East 500 575 41,000  Level Gander Center
10:16AM 48.5000 -52.3667 68° East 500 575 41,000  Level Gander Center
10:17AM 48.5333 -52.1500 77° East 500 575 41,000  Level Gander Center
10:18AM 48.5833 -51.9667 68° East 500 575 41,000  Level Gander Center
10:19AM 48.6167 -51.7667 76° East 500 575 41,000  Level Gander Center
10:20AM 48.6667 -51.5667 69° East 500 575 41,000  Level Gander Center
10:21AM 48.7000 -51.3667 76° East 500 575 41,000  Level Gander Center
10:22AM 48.7500 -51.1500 71° East 500 575 41,000  Level Gander Center
10:23AM 48.7833 -50.9667 75° East 500 575 41,000  Level Gander Center
10:24AM 48.8333 -50.7500 71° East 500 575 41,000  Level Gander Center
10:25AM 48.8667 -50.5667 74° East 500 575 41,000  Level Gander Center
10:26AM 48.9000 -50.3500 77° East 500 575 41,000  Level Gander Center
10:27AM 48.9333 -50.1667 74° East 500 575 41,000  Level Gander Center
10:28AM 48.9833 -49.9500 71° East 500 575 41,000  Level Gander Center
10:29AM 49.0167 -49.7500 76° East 500 575 41,000  Level Gander Center
10:30AM 49.0000 -50.0000 77° East 492 566 41,000  Level ETMS Enhanced Traffic Management System
10:31AM 49.0667 -49.3333 77° East 500 575 41,000  Level Gander Center
10:32AM 49.1000 -49.1167 77° East 510 587 41,000  Level Gander Center
10:33AM 49.1333 -48.9000 77° East 500 575 41,000  Level Gander Center
10:34AM 49.1500 -48.7167 82° East 500 575 41,000  Level Gander Center
10:35AM 49.1833 -48.4833 78° East 500 575 41,000  Level Gander Center
10:36AM 49.2167 -48.2833 76° East 500 575 41,000  Level Gander Center
10:37AM 49.2333 -48.0833 83° East 510 587 41,000  Level Gander Center
10:38AM 49.2667 -47.8667 77° East 510 587 41,000  Level Gander Center
10:39AM 49.2833 -47.6500 83° East 500 575 41,000  Level Gander Center
10:41AM 49.3333 -47.2500 79° East 510 587 41,000  Level Gander Center
10:42AM 49.3667 -47.0333 77° East 510 587 41,000  Level Gander Center
10:44AM 49.4084 -46.6864 79° East  Level FlightAware Approximate
10:51AM 49.5706 -45.2375 80° East  Level FlightAware Approximate
10:52AM 49.5924 -45.0298 81° East  Level FlightAware Approximate
10:53AM 49.6137 -44.8219 81° East  Level FlightAware Approximate
10:54AM 49.6346 -44.6138 81° East  Level FlightAware Approximate
10:55AM 49.6552 -44.4055 81° East  Level FlightAware Approximate
10:56AM 49.6754 -44.1970 81° East  Level FlightAware Approximate
10:57AM 49.6953 -43.9884 82° East  Level FlightAware Approximate
10:58AM 49.7147 -43.7796 82° East  Level FlightAware Approximate
10:59AM 49.7338 -43.5706 82° East  Level FlightAware Approximate
11:00AM 49.7525 -43.3615 82° East  Level FlightAware Approximate
11:01AM 49.7708 -43.1522 82° East  Level FlightAware Approximate
11:02AM 49.7888 -42.9427 82° East  Level FlightAware Approximate
11:03AM 49.8064 -42.7332 83° East  Level FlightAware Approximate
11:04AM 49.8236 -42.5234 83° East  Level FlightAware Approximate
11:05AM 49.8404 -42.3135 83° East  Level FlightAware Approximate
11:06AM 49.8568 -42.1035 83° East  Level FlightAware Approximate
11:07AM 49.8729 -41.8933 83° East  Level FlightAware Approximate
11:08AM 49.8886 -41.6830 83° East  Level FlightAware Approximate
11:09AM 49.9039 -41.4725 83° East  Level FlightAware Approximate
11:10AM 49.9188 -41.2619 84° East  Level FlightAware Approximate
11:11AM 49.9333 -41.0512 84° East  Level FlightAware Approximate
11:12AM 49.9475 -40.8404 84° East  Level FlightAware Approximate
11:13AM 49.9612 -40.6294 84° East  Level FlightAware Approximate
11:14AM 49.9746 -40.4183 84° East  Level FlightAware Approximate
11:15AM 49.9876 -40.2071 84° East  Level FlightAware Approximate
11:16AM 50.0002 -39.9959 86° East  Level FlightAware Approximate
11:16AM 50.0000 -40.0000 86° East 525 604 41,000  Level ETMS Enhanced Traffic Management System
11:17AM 50.0091 -39.7841 86° East  Level FlightAware Approximate
11:18AM 50.0176 -39.5722 86° East  Level FlightAware Approximate
11:19AM 50.0258 -39.3603 86° East  Level FlightAware Approximate
11:20AM 50.0336 -39.1482 87° East  Level FlightAware Approximate
11:21AM 50.0409 -38.9361 87° East  Level FlightAware Approximate
11:22AM 50.0639 -38.1847 88° East 525 604 41,000  Level FlightAware Transoceanic
11:23AM 50.0700 -37.9574 88° East 525 604 41,000  Level FlightAware Transoceanic
11:24AM 50.0755 -37.7301 88° East 525 604 41,000  Level FlightAware Transoceanic
11:25AM 50.0806 -37.5028 88° East 525 604 41,000  Level FlightAware Transoceanic
11:26AM 50.0853 -37.2754 88° East 525 604 41,000  Level FlightAware Transoceanic
11:27AM 50.0895 -37.0480 88° East 525 604 41,000  Level FlightAware Transoceanic
11:28AM 50.0933 -36.8205 89° East 525 604 41,000  Level FlightAware Transoceanic
11:29AM 50.0966 -36.5930 89° East 525 604 41,000  Level FlightAware Transoceanic
11:30AM 50.0995 -36.3655 89° East 525 604 41,000  Level FlightAware Transoceanic
11:31AM 50.1020 -36.1380 89° East 525 604 41,000  Level FlightAware Transoceanic
11:32AM 50.1040 -35.9104 89° East 525 604 41,000  Level FlightAware Transoceanic
11:33AM 50.1055 -35.6828 89° East 525 604 41,000  Level FlightAware Transoceanic
11:34AM 50.1066 -35.4552 90° East 525 604 41,000  Level FlightAware Transoceanic
11:35AM 50.1073 -35.2276 90° East 525 604 41,000  Level FlightAware Transoceanic
11:36AM 50.1075 -35.0000 90° East 525 604 41,000  Level FlightAware Transoceanic
11:37AM 50.1073 -34.7724 90° East 525 604 41,000  Level FlightAware Transoceanic
11:38AM 50.1066 -34.5448 90° East 525 604 41,000  Level FlightAware Transoceanic
11:39AM 50.1055 -34.3172 91° East 525 604 41,000  Level FlightAware Transoceanic
11:40AM 50.1040 -34.0896 91° East 525 604 41,000  Level FlightAware Transoceanic
11:41AM 50.1020 -33.8620 91° East 525 604 41,000  Level FlightAware Transoceanic
11:42AM 50.0995 -33.6345 91° East 525 604 41,000  Level FlightAware Transoceanic
11:43AM 50.0966 -33.4070 91° East 525 604 41,000  Level FlightAware Transoceanic
11:44AM 50.0933 -33.1795 91° East 525 604 41,000  Level FlightAware Transoceanic
11:45AM 50.0895 -32.9520 92° East 525 604 41,000  Level FlightAware Transoceanic
11:46AM 50.0853 -32.7246 92° East 525 604 41,000  Level FlightAware Transoceanic
11:47AM 50.0806 -32.4972 92° East 525 604 41,000  Level FlightAware Transoceanic
11:48AM 50.0755 -32.2699 92° East 525 604 41,000  Level FlightAware Transoceanic
11:49AM 50.0700 -32.0426 92° East 525 604 41,000  Level FlightAware Transoceanic
11:50AM 50.0639 -31.8153 92° East 525 604 41,000  Level FlightAware Transoceanic
11:51AM 50.0575 -31.5882 93° East 525 604 41,000  Level FlightAware Transoceanic
11:52AM 50.0506 -31.3611 93° East 525 604 41,000  Level FlightAware Transoceanic
11:53AM 50.0433 -31.1340 93° East 525 604 41,000  Level FlightAware Transoceanic
11:54AM 50.0355 -30.9071 93° East 525 604 41,000  Level FlightAware Transoceanic
11:55AM 50.0273 -30.6802 93° East 525 604 41,000  Level FlightAware Transoceanic
11:56AM 50.0186 -30.4534 93° East 525 604 41,000  Level FlightAware Transoceanic
11:57AM 50.0095 -30.2266 94° East 525 604 41,000  Level FlightAware Transoceanic
11:58AM 50.0006 -30.0148 94° East  Level FlightAware Approximate
11:59AM 49.9913 -29.8031 94° East  Level FlightAware Approximate
12:00PM 49.9898 -29.8182 95° East  Level FlightAware Approximate
12:00PM 50.0000 -30.0000 95° East 537 618 41,000  Level ETMS Enhanced Traffic Management System
12:01PM 49.9775 -29.6068 95° East  Level FlightAware Approximate
12:02PM 49.9649 -29.3956 95° East  Level FlightAware Approximate
12:03PM 49.9519 -29.1845 95° East  Level FlightAware Approximate
12:04PM 49.9385 -28.9736 96° East  Level FlightAware Approximate
12:05PM 49.9248 -28.7627 96° East  Level FlightAware Approximate
12:06PM 49.8661 -27.9238 97° East 537 618 41,000  Level FlightAware Transoceanic
12:07PM 49.8490 -27.6939 97° East 537 618 41,000  Level FlightAware Transoceanic
12:08PM 49.8314 -27.4641 97° East 537 618 41,000  Level FlightAware Transoceanic
12:09PM 49.8133 -27.2346 97° East 537 618 41,000  Level FlightAware Transoceanic
12:10PM 49.7948 -27.0051 97° East 537 618 41,000  Level FlightAware Transoceanic
12:11PM 49.7758 -26.7759 97° East 537 618 41,000  Level FlightAware Transoceanic
12:12PM 49.7564 -26.5468 98° East 537 618 41,000  Level FlightAware Transoceanic
12:13PM 49.7365 -26.3179 98° East 537 618 41,000  Level FlightAware Transoceanic
12:14PM 49.7162 -26.0893 98° East 537 618 41,000  Level FlightAware Transoceanic
12:15PM 49.6954 -25.8608 98° East 537 618 41,000  Level FlightAware Transoceanic
12:16PM 49.6742 -25.6325 98° East 537 618 41,000  Level FlightAware Transoceanic
12:17PM 49.6525 -25.4044 98° East 537 618 41,000  Level FlightAware Transoceanic
12:18PM 49.6304 -25.1765 99° East 537 618 41,000  Level FlightAware Transoceanic
12:19PM 49.6078 -24.9488 99° East 537 618 41,000  Level FlightAware Transoceanic
12:20PM 49.5848 -24.7213 99° East 537 618 41,000  Level FlightAware Transoceanic
12:21PM 49.5614 -24.4941 99° East 537 618 41,000  Level FlightAware Transoceanic
12:22PM 49.5375 -24.2670 99° East 537 618 41,000  Level FlightAware Transoceanic
12:23PM 49.5131 -24.0402 99° East 537 618 41,000  Level FlightAware Transoceanic
12:24PM 49.4883 -23.8136 100° East 537 618 41,000  Level FlightAware Transoceanic
12:25PM 49.4631 -23.5873 100° East 537 618 41,000  Level FlightAware Transoceanic
12:26PM 49.4374 -23.3612 100° East 537 618 41,000  Level FlightAware Transoceanic
12:27PM 49.4113 -23.1353 100° East 537 618 41,000  Level FlightAware Transoceanic
12:28PM 49.3848 -22.9097 100° East 537 618 41,000  Level FlightAware Transoceanic
12:29PM 49.3578 -22.6843 101° East 537 618 41,000  Level FlightAware Transoceanic
12:30PM 49.3303 -22.4591 101° East 537 618 41,000  Level FlightAware Transoceanic
12:31PM 49.3025 -22.2342 101° East 537 618 41,000  Level FlightAware Transoceanic
12:32PM 49.2742 -22.0096 101° East 537 618 41,000  Level FlightAware Transoceanic
12:33PM 49.2454 -21.7852 101° East 537 618 41,000  Level FlightAware Transoceanic
12:34PM 49.2163 -21.5611 101° East 537 618 41,000  Level FlightAware Transoceanic
12:35PM 49.1867 -21.3373 102° East 537 618 41,000  Level FlightAware Transoceanic
12:36PM 49.1566 -21.1137 102° East 537 618 41,000  Level FlightAware Transoceanic
12:37PM 49.1262 -20.8904 102° East 537 618 41,000  Level FlightAware Transoceanic
12:38PM 49.0953 -20.6674 102° East 537 618 41,000  Level FlightAware Transoceanic
12:39PM 49.0639 -20.4446 102° East 537 618 41,000  Level FlightAware Transoceanic
12:40PM 49.0322 -20.2222 102° East 537 618 41,000  Level FlightAware Transoceanic
12:41PM 49.0028 -20.0190 102° East  Level FlightAware Approximate
12:42PM 48.9730 -19.8162 103° East  Level FlightAware Approximate
12:43PM 49.0069 -19.8314 86° East  Level FlightAware Approximate
12:44PM 49.0151 -19.6237 86° East  Level FlightAware Approximate
12:45PM 49.0229 -19.4160 87° East  Level FlightAware Approximate
12:46PM 49.0303 -19.2083 87° East  Level FlightAware Approximate
12:47PM 49.0373 -19.0005 87° East  Level FlightAware Approximate
12:48PM 49.0440 -18.7926 87° East  Level FlightAware Approximate
12:49PM 49.0503 -18.5846 87° East  Level FlightAware Approximate
12:50PM 49.0562 -18.3767 87° East  Level FlightAware Approximate
12:51PM 49.0618 -18.1686 88° East  Level FlightAware Approximate
12:52PM 49.0669 -17.9606 88° East  Level FlightAware Approximate
12:53PM 49.0717 -17.7524 88° East  Level FlightAware Approximate
12:54PM 49.0762 -17.5443 88° East  Level FlightAware Approximate
12:55PM 49.0802 -17.3361 88° East  Level FlightAware Approximate
12:56PM 49.0839 -17.1279 88° East  Level FlightAware Approximate
12:57PM 49.0872 -16.9196 89° East  Level FlightAware Approximate
12:58PM 49.0901 -16.7113 89° East  Level FlightAware Approximate
12:59PM 49.0927 -16.5030 89° East  Level FlightAware Approximate
01:00PM 49.0949 -16.2947 89° East  Level FlightAware Approximate
01:01PM 49.0967 -16.0864 89° East  Level FlightAware Approximate
01:02PM 49.0981 -15.8780 89° East  Level FlightAware Approximate
01:03PM 49.0992 -15.6697 89° East  Level FlightAware Approximate
01:04PM 49.0998 -15.4613 90° East  Level FlightAware Approximate
01:05PM 49.1001 -15.2529 90° East  Level FlightAware Approximate
01:06PM 49.1001 -15.0445 90° East  Level FlightAware Approximate
01:07PM 49.1005 -14.8362 90° East  Level FlightAware Approximate
01:08PM 49.1008 -14.6278 90° East  Level FlightAware Approximate
01:09PM 49.1008 -14.4194 90° East  Level FlightAware Approximate
01:10PM 49.1004 -14.2110 90° East  Level FlightAware Approximate
01:11PM 49.0996 -14.0027 90° East  Level FlightAware Approximate
01:12PM 49.0984 -13.7943 90° East  Level FlightAware Approximate
01:13PM 49.0969 -13.5859 91° East  Level FlightAware Approximate
01:14PM 49.0950 -13.3776 91° East  Level FlightAware Approximate
01:15PM 49.0927 -13.1693 91° East  Level FlightAware Approximate
01:16PM 49.0900 -12.9610 91° East  Level FlightAware Approximate
01:17PM 49.0870 -12.7527 91° East  Level FlightAware Approximate
01:18PM 49.0835 -12.5445 91° East  Level FlightAware Approximate
01:19PM 49.0798 -12.3363 92° East  Level FlightAware Approximate
01:20PM 49.0756 -12.1281 92° East  Level FlightAware Approximate
01:21PM 49.0710 -11.9199 92° East  Level FlightAware Approximate
01:22PM 49.0666 -11.7118 90° East  Level FlightAware Approximate
01:23PM 49.0661 -11.5036 90° East  Level FlightAware Approximate
01:24PM 49.0651 -11.2954 90° East  Level FlightAware Approximate
01:25PM 49.0638 -11.0871 90° East  Level FlightAware Approximate
01:26PM 49.0620 -10.8789 91° East  Level FlightAware Approximate
01:27PM 49.0600 -10.6707 91° East  Level FlightAware Approximate
01:28PM 49.0575 -10.4626 91° East  Level FlightAware Approximate
01:29PM 49.0547 -10.2544 91° East  Level FlightAware Approximate
01:30PM 49.0515 -10.0463 91° East  Level FlightAware Approximate
01:30PM 49.1003 -9.0123 91° East 490 564 41,000  Level FlightAware UK
01:31PM 49.1013 -8.8980 89° East 492 566 41,000  Level FlightAware UK
01:31PM 49.1006 -8.7894 91° East 492 566 41,000  Level FlightAware UK
01:32PM 49.0997 -8.6809 91° East 492 566 41,000  Level FlightAware UK
01:32PM 49.0989 -8.5727 91° East 488 562 41,000  Level FlightAware UK
01:33PM 49.0977 -8.4649 91° East 492 566 41,000  Level FlightAware UK
01:33PM 49.0964 -8.3572 91° East 488 562 41,000  Level FlightAware UK
01:34PM 49.0951 -8.2495 91° East 490 564 41,000  Level FlightAware UK
01:34PM 49.0938 -8.1419 91° East 490 564 41,000  Level FlightAware UK
01:35PM 49.0932 -8.0341 90° East 490 564 41,000  Level FlightAware UK
01:35PM 49.0931 -7.9255 90° East 488 562 41,000  Level FlightAware UK
01:36PM 49.0928 -7.8174 90° East 490 564 41,000  Level FlightAware UK
01:36PM 49.0923 -7.7093 90° East 490 564 41,000  Level FlightAware UK
01:37PM 49.0917 -7.6010 90° East 490 564 41,000  Level FlightAware UK
01:37PM 49.0910 -7.4928 91° East 488 562 41,000  Level FlightAware UK
01:38PM 49.0900 -7.3848 91° East 488 562 41,000  Level FlightAware UK
01:38PM 49.0890 -7.2768 91° East 490 564 41,000  Level FlightAware UK
01:39PM 49.0878 -7.1685 91° East 492 566 41,000  Level FlightAware UK
01:39PM 49.0868 -7.0600 91° East 492 566 41,000  Level FlightAware UK
01:40PM 49.0854 -6.9513 91° East 490 564 41,000  Level FlightAware UK
01:40PM 49.0839 -6.8421 91° East 490 564 41,000  Level FlightAware UK
01:41PM 49.0824 -6.7336 91° East 492 566 41,000  Level FlightAware UK
01:41PM 49.0803 -6.6255 92° East 490 564 41,000  Level FlightAware UK
01:42PM 49.0789 -6.5177 91° East 488 562 41,000  Level FlightAware UK
01:42PM 49.0771 -6.4101 91° East 490 564 41,000  Level FlightAware UK
01:43PM 49.0752 -6.3025 92° East 490 564 41,000  Level FlightAware UK
01:43PM 49.0731 -6.1946 92° East 492 566 41,000  Level FlightAware UK
01:44PM 49.0711 -6.0866 92° East 490 564 41,000  Level FlightAware UK
01:44PM 49.0691 -5.9790 92° East 490 564 41,000  Level FlightAware UK
01:45PM 49.0667 -5.8717 92° East 488 562 41,000  Level FlightAware UK
01:45PM 49.0643 -5.7640 92° East 490 564 41,000  Level FlightAware UK
01:46PM 49.0617 -5.6570 92° East 490 564 41,000  Level FlightAware UK
01:46PM 49.0592 -5.5499 92° East 490 564 41,000  Level FlightAware UK
01:47PM 49.0560 -5.4214 92° East 492 566 41,000  Level FlightAware UK
01:47PM 49.0531 -5.3145 92° East 492 566 41,000  Level FlightAware UK
01:48PM 49.0501 -5.2080 92° East 490 564 41,000  Level FlightAware UK
01:48PM 49.0471 -5.1020 92° East 488 562 41,000  Level FlightAware UK
01:49PM 49.0429 -4.9537 92° East 488 562 41,000  Level FlightAware UK
01:50PM 49.0397 -4.8476 93° East 494 568 41,000  Level FlightAware UK
01:50PM 49.0355 -4.7190 93° East 494 568 41,000  Level FlightAware UK
01:51PM 49.0322 -4.6126 93° East 488 562 41,000  Level FlightAware UK
01:51PM 49.0289 -4.5068 93° East 488 562 41,000  Level FlightAware UK
01:52PM 49.0253 -4.4010 93° East 490 564 41,000  Level FlightAware UK
01:52PM 49.0215 -4.2951 93° East 492 566 41,000  Level FlightAware UK
01:53PM 49.0169 -4.1670 93° East 494 568 41,000  Level FlightAware UK
01:53PM 49.0120 -4.0403 93° East 488 562 41,000  Level FlightAware UK
01:54PM 49.0082 -3.9352 93° East 484 557 41,000  Level FlightAware UK
01:55PM 49.0032 -3.8096 93° East 486 559 41,000  Level FlightAware UK
01:55PM 48.9991 -3.7043 93° East 490 564 41,000  Level FlightAware UK
01:56PM 48.9938 -3.5771 94° East 494 568 41,000  Level FlightAware UK
01:56PM 48.9876 -3.4283 94° East 486 559 41,000  Level FlightAware UK
01:57PM 48.9820 -3.3004 94° East 490 564 41,000  Level FlightAware UK
01:57PM 48.9772 -3.1946 94° East 488 562 41,000  Level FlightAware UK
01:58PM 48.9721 -3.0882 94° East 488 562 41,000  Level FlightAware UK
01:59PM 48.9663 -2.9610 94° East 492 566 41,000  Level FlightAware UK
01:59PM 48.9612 -2.8543 94° East 490 564 41,000  Level FlightAware UK
02:00PM 48.9557 -2.7466 94° East 494 568 41,000  Level FlightAware UK
02:00PM 48.9467 -2.5750 94° East 490 564 41,000  Level FlightAware UK
02:01PM 48.9414 -2.4696 94° East 486 559 41,000  Level FlightAware UK
02:01PM 48.9348 -2.3445 95° East 486 559 41,000  Level FlightAware UK
02:02PM 48.9292 -2.2390 95° East 486 559 41,000  Level FlightAware UK
02:02PM 48.9235 -2.1336 95° East 488 562 41,000  Level FlightAware UK
02:03PM 48.9178 -2.0269 95° East 490 564 41,000  Level FlightAware UK
02:04PM 48.9072 -1.8352 95° East 492 566 41,000  Level FlightAware UK
02:05PM 48.8987 -1.6869 95° East 488 562 41,000  Level FlightAware UK
02:05PM 48.8924 -1.5829 95° East 488 562 41,000  Level FlightAware UK
02:06PM 48.8850 -1.4584 95° East 486 559 41,000  Level FlightAware UK
02:06PM 48.8749 -1.2913 95° East 494 568 41,000  Level FlightAware UK
02:07PM 48.8640 -1.1237 96° East 490 564 41,000  Level FlightAware UK
02:08PM 48.8574 -1.0184 95° East 486 559 41,000 600 Level FlightAware UK
02:08PM 48.8509 -0.9140 95° East 486 559 41,600 1,140 Climbing FlightAware UK
02:09PM 48.8426 -0.7887 96° East 482 555 42,300 1,140 Climbing FlightAware UK
02:09PM 48.8344 -0.6647 96° East 480 552 43,000 900 Climbing FlightAware UK
02:10PM 48.8243 -0.5202 96° East 478 550 43,500 660 Climbing FlightAware UK
02:11PM 48.8158 -0.3962 96° East 484 557 43,900 540 Climbing FlightAware UK
02:11PM 48.8067 -0.2714 96° East 486 559 44,200 480 Climbing FlightAware UK
02:12PM 48.7962 -0.1238 96° East 484 557 44,600 480 Climbing FlightAware UK
02:13PM 48.7854 0.0240 96° East 482 555 44,900 240 Climbing FlightAware UK
02:14PM 48.7729 0.1932 96° East 492 566 45,000 60 Climbing FlightAware UK
02:14PM 48.7600 0.3628 97° East 488 562 45,000  Level FlightAware UK
02:15PM 48.7453 0.5516 97° East 482 555 45,000  Level FlightAware UK
02:17PM 48.7217 0.8466 97° East 488 562 45,000  Level FlightAware UK
02:17PM 48.7113 0.9737 97° East 486 559 45,000  Level FlightAware UK
02:18PM 48.7010 1.1004 97° East 486 559 45,000  Level FlightAware UK
02:19PM 48.6907 1.2266 97° East 486 559 45,000  Level FlightAware UK
02:19PM 48.6860 1.3326 94° East 490 564 45,000  Level FlightAware UK
02:20PM 48.6778 1.4810 95° East 484 557 45,000  Level FlightAware UK
02:20PM 48.6717 1.5871 95° East 484 557 45,000  Level FlightAware UK
02:21PM 48.6645 1.7133 95° East 486 559 45,000  Level FlightAware UK
02:22PM 48.6541 1.8832 95° East 486 559 45,000  Level FlightAware UK
02:22PM 48.6476 1.9888 95° East 486 559 45,000  Level FlightAware UK
02:23PM 48.6386 2.1364 95° East 488 562 45,000  Level FlightAware UK
02:23PM 48.6326 2.2426 95° East 490 564 45,000  Level FlightAware UK
02:25PM 48.5981 2.4812 102° East  Level Estimated
02:32PM 48.3840 3.8856 102° East  Level Estimated
02:33PM 48.3520 4.0852 103° East  Level Estimated
02:34PM 48.3197 4.2846 104° East  Level Estimated
02:35PM 48.2870 4.4837 104° East  Level Estimated
02:36PM 48.2540 4.6826 104° East  Level Estimated
02:37PM 48.2207 4.8812 104° East  Level Estimated
02:38PM 48.1870 5.0796 104° East  Level Estimated
02:39PM 48.1530 5.2777 104° East  Level Estimated
02:40PM 48.1186 5.4755 105° East  Level Estimated
02:41PM 48.0839 5.6731 105° East  Level Estimated
02:42PM 48.0488 5.8704 105° East  Level Estimated
02:43PM 48.0134 6.0674 105° East  Level Estimated
02:44PM 47.9777 6.2642 105° East  Level Estimated
02:45PM 47.9416 6.4607 105° East  Level Estimated
02:46PM 47.9052 6.6569 105° East  Level Estimated
02:47PM 47.8685 6.8528 106° East  Level Estimated
02:48PM 47.8315 7.0485 106° East  Level Estimated
02:49PM 47.7940 7.2439 106° East  Level Estimated
02:50PM 47.7563 7.4390 106° East  Level Estimated
02:51PM 47.7183 7.6338 106° East  Level Estimated
02:52PM 47.6799 7.8283 106° East  Level Estimated
02:53PM 47.6412 8.0225 106° East  Level Estimated
02:54PM 47.6021 8.2165 107° East  Level Estimated
02:55PM 47.5628 8.4101 107° East  Level Estimated
02:56PM 47.5231 8.6035 107° East  Level Estimated
02:57PM 47.4830 8.7966 107° East  Level Estimated
02:58PM 47.4427 8.9894 107° East  Level Estimated
02:59PM 47.4020 9.1818 107° East  Level Estimated
03:00PM 47.3610 9.3740 107° East  Level Estimated
03:01PM 47.3197 9.5659 108° East  Level Estimated
03:02PM 47.2781 9.7575 108° East  Level Estimated
03:03PM 47.2362 9.9487 108° East  Level Estimated
03:04PM 47.1939 10.1397 108° East  Level Estimated
03:05PM 47.1513 10.3304 108° East  Level Estimated
03:06PM 47.1084 10.5208 108° East  Level Estimated
03:07PM 47.0652 10.7108 108° East  Level Estimated
03:08PM 47.0217 10.9006 109° East  Level Estimated
03:09PM 46.9779 11.0900 109° East  Level Estimated
03:10PM 46.9337 11.2791 109° East  Level Estimated
03:11PM 46.8893 11.4679 109° East  Level Estimated
03:12PM 46.8445 11.6565 109° East  Level Estimated
03:13PM 46.7994 11.8446 109° East  Level Estimated
03:14PM 46.7540 12.0325 109° East  Level Estimated
03:15PM 46.7083 12.2200 109° East  Level Estimated
03:16PM 46.6623 12.4073 110° East  Level Estimated
03:17PM 46.6160 12.5942 110° East  Level Estimated
03:18PM 46.5694 12.7808 110° East  Level Estimated
03:19PM 46.5225 12.9670 110° East  Level Estimated
03:20PM 46.4753 13.1530 110° East  Level Estimated
03:21PM 46.4278 13.3386 110° East  Level Estimated
03:22PM 46.3800 13.5239 110° East  Level Estimated
03:23PM 46.3319 13.7089 111° Southeast  Level Estimated
03:24PM 46.2835 13.8936 111° Southeast  Level Estimated
03:25PM 46.2347 14.0779 111° Southeast  Level Estimated
03:26PM 46.1857 14.2619 111° Southeast  Level Estimated
03:27PM 46.1364 14.4455 111° Southeast  Level Estimated
03:28PM 46.0868 14.6289 111° Southeast  Level Estimated
03:29PM 46.0370 14.8119 111° Southeast  Level Estimated
03:30PM 45.9868 14.9946 112° Southeast  Level Estimated
03:31PM 45.9363 15.1769 112° Southeast  Level Estimated
03:32PM 45.8856 15.3589 112° Southeast  Level Estimated
03:33PM 45.8345 15.5406 112° Southeast  Level Estimated
03:34PM 45.7832 15.7219 112° Southeast  Level Estimated
03:35PM 45.7316 15.9030 112° Southeast  Level Estimated
03:36PM 45.6797 16.0836 112° Southeast  Level Estimated
03:37PM 45.6275 16.2640 112° Southeast  Level Estimated
03:38PM 45.5750 16.4440 113° Southeast  Level Estimated
03:39PM 45.5223 16.6236 113° Southeast  Level Estimated
03:40PM 45.4692 16.8030 113° Southeast  Level Estimated
03:41PM 45.4159 16.9820 113° Southeast  Level Estimated
03:42PM 45.3624 17.1606 113° Southeast  Level Estimated
03:43PM 45.3085 17.3389 113° Southeast  Level Estimated
03:44PM 45.2543 17.5169 113° Southeast  Level Estimated
03:45PM 45.1999 17.6945 113° Southeast  Level Estimated
03:46PM 45.1452 17.8718 114° Southeast  Level Estimated
03:47PM 45.0902 18.0488 114° Southeast  Level Estimated
03:48PM 45.0350 18.2254 114° Southeast  Level Estimated
03:49PM 44.9795 18.4016 114° Southeast  Level Estimated
03:50PM 44.9237 18.5776 114° Southeast  Level Estimated
03:51PM 44.8676 18.7532 114° Southeast  Level Estimated
03:52PM 44.8113 18.9284 114° Southeast  Level Estimated
03:53PM 44.7547 19.1033 114° Southeast  Level Estimated
03:54PM 44.6979 19.2779 115° Southeast  Level Estimated
03:55PM 44.6407 19.4521 115° Southeast  Level Estimated
03:56PM 44.5834 19.6259 115° Southeast  Level Estimated
03:57PM 44.5257 19.7995 115° Southeast  Level Estimated
03:58PM 44.4678 19.9727 115° Southeast  Level Estimated
03:59PM 44.4096 20.1455 115° Southeast  Level Estimated
04:00PM 44.3512 20.3180 115° Southeast  Level Estimated
04:01PM 44.2925 20.4901 115° Southeast  Level Estimated
04:02PM 44.2335 20.6619 116° Southeast  Level Estimated
04:03PM 44.1743 20.8334 116° Southeast  Level Estimated
04:04PM 44.1148 21.0045 116° Southeast  Level Estimated
04:05PM 44.0551 21.1753 116° Southeast  Level Estimated
04:06PM 43.9952 21.3457 116° Southeast  Level Estimated
04:07PM 43.9349 21.5158 116° Southeast  Level Estimated
04:08PM 43.8745 21.6855 116° Southeast  Level Estimated
04:09PM 43.8137 21.8549 116° Southeast  Level Estimated
04:10PM 43.7527 22.0240 116° Southeast  Level Estimated
04:11PM 43.6915 22.1927 117° Southeast  Level Estimated
04:12PM 43.6300 22.3610 117° Southeast  Level Estimated
04:13PM 43.5683 22.5291 117° Southeast  Level Estimated
04:14PM 43.5063 22.6967 117° Southeast  Level Estimated
04:15PM 43.4441 22.8640 117° Southeast  Level Estimated
04:16PM 43.3817 23.0310 117° Southeast  Level Estimated
04:17PM 43.3190 23.1977 117° Southeast  Level Estimated
04:18PM 43.2560 23.3639 117° Southeast  Level Estimated
04:19PM 43.1928 23.5299 118° Southeast  Level Estimated
04:20PM 43.1294 23.6955 118° Southeast  Level Estimated
04:21PM 43.0658 23.8608 118° Southeast  Level Estimated
04:22PM 43.0019 24.0257 118° Southeast  Level Estimated
04:23PM 42.9378 24.1902 118° Southeast  Level Estimated
04:24PM 42.8734 24.3545 118° Southeast  Level Estimated
04:25PM 42.8088 24.5184 118° Southeast  Level Estimated
04:26PM 42.7439 24.6819 118° Southeast  Level Estimated
04:27PM 42.6789 24.8451 118° Southeast  Level Estimated
04:28PM 42.6136 25.0080 119° Southeast  Level Estimated
04:29PM 42.5480 25.1705 119° Southeast  Level Estimated
04:30PM 42.4823 25.3327 119° Southeast  Level Estimated
04:31PM 42.4163 25.4945 119° Southeast  Level Estimated
04:32PM 42.3501 25.6560 119° Southeast  Level Estimated
04:33PM 42.2837 25.8171 119° Southeast  Level Estimated
04:34PM 42.2170 25.9779 119° Southeast  Level Estimated
04:35PM 42.1501 26.1384 119° Southeast  Level Estimated
04:36PM 42.0830 26.2986 119° Southeast  Level Estimated
04:37PM 42.0157 26.4584 120° Southeast  Level Estimated
04:38PM 41.9481 26.6178 120° Southeast  Level Estimated
04:39PM 41.8803 26.7769 120° Southeast  Level Estimated
04:40PM 41.8124 26.9357 120° Southeast  Level Estimated
04:41PM 41.7441 27.0942 120° Southeast  Level Estimated
04:42PM 41.6757 27.2523 120° Southeast  Level Estimated
04:43PM 41.6071 27.4100 120° Southeast  Level Estimated
04:44PM 41.5382 27.5675 120° Southeast  Level Estimated
04:45PM 41.4692 27.7246 120° Southeast  Level Estimated
04:46PM 41.3999 27.8813 120° Southeast  Level Estimated
04:47PM 41.3304 28.0378 121° Southeast  Level Estimated
04:48PM 41.2607 28.1939 121° Southeast  Level Estimated
04:49PM 41.1907 28.3496 121° Southeast  Level Estimated
04:50PM 41.1206 28.5051 121° Southeast  Level Estimated
04:51PM 41.0503 28.6602 121° Southeast  Level Estimated
04:52PM 40.9797 28.8149 121° Southeast  Level Estimated
04:53PM 40.9769 28.8211 121° Southeast  Level Estimated
04:54PM 40.9769 28.8211 21° North  Level Estimated
04:55PM 40.9769 28.8211 21° North  Level Estimated
04:56PM 40.9769 28.8211 21° North  Level Estimated
04:57PM 40.9769 28.8211 21° North  Level Estimated
04:58PM 40.9769 28.8211 21° North  Level Estimated
04:59PM 40.9769 28.8211 21° North  Level Estimated
05:00PM 40.9769 28.8211 21° North  Level Estimated
05:01PM 40.9769 28.8211 21° North  Level Estimated
05:02PM 40.9769 28.8211 21° North  Level Estimated
05:03PM 40.9769 28.8211 21° North  Level Estimated
05:04PM 40.9769 28.8211 21° North  Level Estimated
05:05PM 40.9769 28.8211 21° North  Level Estimated
05:06PM 40.9769 28.8211 21° North  Level Estimated
05:07PM 40.9769 28.8211 21° North  Level Estimated
05:08PM 40.9769 28.8211 21° North  Level Estimated
05:09PM 40.9769 28.8211 21° North  Level Estimated
05:10PM 40.9769 28.8211 21° North  Level Estimated
05:11PM 40.9769 28.8211 21° North  Level Estimated
05:12PM 40.9769 28.8211 21° North  Level Estimated
05:13PM 40.9769 28.8211 21° North  Level Estimated
05:14PM 40.9769 28.8211 21° North  Level Estimated
05:15PM 40.9769 28.8211 21° North  Level Estimated
05:16PM 40.9769 28.8211 21° North  Level Estimated
05:17PM 40.9769 28.8211 21° North  Level Estimated
05:18PM 40.9769 28.8211 21° North  Level Estimated
05:19PM 40.9769 28.8211 21° North  Level Estimated
05:20PM 40.9769 28.8211 21° North  Level Estimated